Time;durP1;ratioP1;P1;durP2;ratioP2;P2;SDS_P1;SDS_P2;PMS_P1;PMS_P2;Temp;Humidity;BMP_temperature;BMP_pressure;BME280_temperature;BME280_humidity;BME280_pressure;Samples;Min_cycle;Max_cycle;Signal;HPM_P1;HPM_P2
2022/07/19 00:00:59;;;;;;;6.12;2.60;;;;;;;26.68;35.39;101460.17;1719856;83;21093;-81
2022/07/19 00:03:31;;;;;;;6.22;2.80;;;;;;;26.68;35.38;101457.39;1719559;82;21631;-81
2022/07/19 00:05:58;;;;;;;6.50;2.80;;;;;;;26.68;35.38;101457.39;1719609;82;21304;-82
2022/07/19 00:08:24;;;;;;;4.72;2.70;;;;;;;26.68;35.34;101455.98;1719854;82;21281;-82
2022/07/19 00:10:50;;;;;;;4.62;2.58;;;;;;;26.68;35.35;101458.78;1719837;82;21642;-82
2022/07/19 00:13:17;;;;;;;7.20;3.00;;;;;;;26.68;35.35;101453.20;1719601;82;21643;-82
2022/07/19 00:15:49;;;;;;;5.60;2.98;;;;;;;26.67;35.34;101455.75;1720026;82;21030;-82
2022/07/19 00:18:16;;;;;;;4.72;2.40;;;;;;;26.66;35.34;101454.92;1719754;82;21132;-82
2022/07/19 00:20:42;;;;;;;5.33;3.22;;;;;;;26.66;35.33;101459.11;1719589;82;21115;-81
2022/07/19 00:23:08;;;;;;;5.75;2.50;;;;;;;26.66;35.33;101450.73;1719502;82;21453;-82
2022/07/19 00:25:35;;;;;;;7.33;3.20;;;;;;;26.67;35.33;101450.16;1719514;82;21086;-82
2022/07/19 00:28:01;;;;;;;4.53;2.90;;;;;;;26.66;35.34;101457.72;1719193;82;21003;-82
2022/07/19 00:30:28;;;;;;;3.70;2.52;;;;;;;26.66;35.33;101456.90;1719890;82;21026;-82
2022/07/19 00:33:01;;;;;;;7.20;2.95;;;;;;;26.65;35.33;101454.68;1719614;82;21116;-82
2022/07/19 00:35:28;;;;;;;5.55;2.95;;;;;;;26.66;35.33;101448.52;1719482;82;21021;-82
2022/07/19 00:37:54;;;;;;;6.85;2.62;;;;;;;26.66;35.33;101452.70;1719884;82;21496;-82
2022/07/19 00:40:22;;;;;;;5.15;2.67;;;;;;;26.65;35.33;101442.73;1719855;82;21078;-81
2022/07/19 00:42:55;;;;;;;5.65;2.22;;;;;;;26.65;35.33;101453.89;1722370;83;21867;-81
2022/07/19 00:45:21;;;;;;;4.65;2.30;;;;;;;26.64;35.36;101444.70;1723015;83;21403;-82
2022/07/19 00:47:47;;;;;;;6.72;2.70;;;;;;;26.65;35.36;101446.30;1723115;82;21063;-81
2022/07/19 00:50:14;;;;;;;10.98;3.02;;;;;;;26.65;35.37;101452.50;1722832;83;21031;-81
2022/07/19 00:52:40;;;;;;;4.90;2.60;;;;;;;26.65;35.39;101448.31;1722981;81;21596;-82
2022/07/19 00:55:10;;;;;;;5.53;2.90;;;;;;;26.65;35.40;101448.31;1723046;83;21103;-82
2022/07/19 00:57:40;;;;;;;5.72;2.20;;;;;;;26.64;35.40;101455.86;1722843;82;21185;-82
2022/07/19 01:00:08;;;;;;;5.62;2.70;;;;;;;26.63;35.43;101448.64;1723086;83;21026;-82
2022/07/19 01:02:35;;;;;;;5.55;2.40;;;;;;;26.64;35.46;101452.25;1722986;83;21456;-80
2022/07/19 01:05:02;;;;;;;5.72;2.58;;;;;;;26.63;35.46;101452.02;1722759;83;20971;-82
2022/07/19 01:07:28;;;;;;;7.40;2.72;;;;;;;26.63;35.48;101447.83;1722971;83;21078;-81
2022/07/19 01:09:55;;;;;;;5.80;3.00;;;;;;;26.63;35.50;101447.25;1723134;83;21499;-82
2022/07/19 01:12:24;;;;;;;4.90;2.65;;;;;;;26.62;35.54;101447.00;1722860;83;21051;-82
2022/07/19 01:14:57;;;;;;;6.58;2.60;;;;;;;26.62;35.55;101437.23;1722988;83;21502;-82
2022/07/19 01:17:23;;;;;;;5.45;2.40;;;;;;;26.62;35.55;101444.21;1723137;83;21570;-82
2022/07/19 01:19:50;;;;;;;5.55;2.20;;;;;;;26.62;35.56;101440.02;1722837;83;21040;-81
2022/07/19 01:22:16;;;;;;;5.75;2.75;;;;;;;26.62;35.59;101438.62;1722881;83;21110;-82
2022/07/19 01:24:43;;;;;;;5.72;2.37;;;;;;;26.61;35.57;101438.38;1723022;83;21538;-81
2022/07/19 01:27:09;;;;;;;6.03;2.35;;;;;;;26.62;35.61;101436.41;1722625;83;21127;-82
2022/07/19 01:29:36;;;;;;;6.75;2.65;;;;;;;26.61;35.62;101436.98;1722879;83;20985;-81
2022/07/19 01:32:04;;;;;;;5.58;2.60;;;;;;;26.61;35.61;101441.18;1722896;83;21071;-81
2022/07/19 01:34:30;;;;;;;7.92;2.62;;;;;;;26.62;35.62;101442.00;1722898;83;21167;-81
2022/07/19 01:36:56;;;;;;;4.90;2.72;;;;;;;26.61;35.64;101434.78;1722939;83;21512;-81
2022/07/19 01:39:23;;;;;;;6.53;2.70;;;;;;;26.61;35.63;101436.17;1722828;83;21040;-82
2022/07/19 01:41:49;;;;;;;4.47;2.30;;;;;;;26.61;35.64;101441.18;1724269;81;21152;-82
2022/07/19 01:44:16;;;;;;;5.37;2.83;;;;;;;26.59;35.64;101432.34;1727519;81;21626;-82
2022/07/19 01:46:42;;;;;;;4.22;2.37;;;;;;;26.60;35.63;101434.56;1727553;81;21805;-81
2022/07/19 01:49:09;;;;;;;6.05;2.55;;;;;;;26.61;35.63;101433.38;1727333;81;21038;-80
2022/07/19 01:51:35;;;;;;;4.10;2.60;;;;;;;26.59;35.63;101435.14;1727803;81;21081;-82
2022/07/19 01:54:02;;;;;;;4.83;2.60;;;;;;;26.59;35.65;101435.72;1727494;81;21487;-82
2022/07/19 01:56:28;;;;;;;4.58;2.08;;;;;;;26.59;35.63;101429.56;1727580;81;21642;-82
2022/07/19 01:58:54;;;;;;;4.92;2.52;;;;;;;26.58;35.64;101432.10;1727716;81;22366;-82
2022/07/19 02:01:21;;;;;;;7.37;2.35;;;;;;;26.58;35.63;101433.50;1727678;81;21049;-82
2022/07/19 02:03:47;;;;;;;5.00;2.50;;;;;;;26.59;35.63;101439.91;1727502;81;20982;-82
2022/07/19 02:06:14;;;;;;;5.47;2.62;;;;;;;26.58;35.63;101440.48;1727893;81;21528;-83
2022/07/19 02:08:41;;;;;;;3.62;2.20;;;;;;;26.58;35.62;101435.47;1727778;81;21444;-82
2022/07/19 02:13:58;;;;;;;5.60;2.50;;;;;;;26.57;35.63;101431.86;1727604;81;21042;-82
2022/07/19 02:16:25;;;;;;;3.45;2.20;;;;;;;26.57;35.64;101431.86;1727282;81;21065;-82
2022/07/19 02:18:51;;;;;;;5.72;2.27;;;;;;;26.57;35.62;101436.63;1727564;82;21476;-82
2022/07/19 02:21:18;;;;;;;5.05;2.45;;;;;;;26.57;35.63;101443.60;1727634;81;21049;-82
2022/07/19 02:23:44;;;;;;;3.72;2.10;;;;;;;26.57;35.63;101445.00;1727384;81;21132;-82
2022/07/19 02:26:10;;;;;;;4.58;2.60;;;;;;;26.56;35.64;101441.99;1727619;81;21029;-82
2022/07/19 02:28:37;;;;;;;6.12;2.37;;;;;;;26.56;35.64;101437.80;1727541;83;21100;-82
2022/07/19 02:31:04;;;;;;;4.00;2.00;;;;;;;26.56;35.62;101447.58;1727268;83;21611;-82
2022/07/19 02:33:31;;;;;;;4.37;2.70;;;;;;;26.55;35.63;101442.57;1727518;81;22679;-80
2022/07/19 02:35:57;;;;;;;7.62;2.58;;;;;;;26.55;35.63;101448.73;1727622;81;21125;-81
2022/07/19 02:38:24;;;;;;;3.17;2.00;;;;;;;26.56;35.62;101447.58;1727359;81;21033;-82
2022/07/19 02:40:50;;;;;;;4.60;2.40;;;;;;;26.54;35.62;101450.70;1727686;81;21057;-81
2022/07/19 02:43:17;;;;;;;5.22;2.20;;;;;;;26.55;35.60;101449.55;1721248;82;21437;-81
2022/07/19 02:45:49;;;;;;;4.10;2.12;;;;;;;26.55;35.59;101449.55;1719615;83;21104;-82
2022/07/19 02:48:15;;;;;;;6.60;2.27;;;;;;;26.55;35.58;101447.33;1719770;82;21798;-82
2022/07/19 02:50:42;;;;;;;3.95;2.42;;;;;;;26.54;35.58;101442.33;1719675;82;21014;-82
2022/07/19 02:53:08;;;;;;;5.25;2.10;;;;;;;26.55;35.59;101448.73;1719489;82;21013;-82
2022/07/19 02:55:35;;;;;;;4.15;2.27;;;;;;;26.54;35.55;101444.30;1719776;82;21586;-82
2022/07/19 02:58:01;;;;;;;4.87;2.05;;;;;;;26.53;35.55;101447.66;1714255;82;21093;-82
2022/07/19 03:00:27;;;;;;;3.80;2.45;;;;;;;26.53;35.54;101444.05;1701168;83;21251;-82
2022/07/19 03:03:43;;;;;;;5.67;2.17;;;;;;;26.53;35.54;101453.81;1701106;82;21041;-82
2022/07/19 03:05:29;;;;;;;5.87;2.08;;;;;;;26.53;35.55;101451.84;1698560;82;21083;-82
2022/07/19 03:07:55;;;;;;;4.12;2.40;;;;;;;26.53;35.52;101452.42;1700723;82;21076;-81
2022/07/19 03:10:28;;;;;;;5.40;2.10;;;;;;;26.53;35.51;101455.21;1701106;82;21059;-81
2022/07/19 03:12:54;;;;;;;4.92;2.22;;;;;;;26.52;35.51;101451.61;1701045;82;21759;-82
2022/07/19 03:15:21;;;;;;;4.67;2.20;;;;;;;26.52;35.51;101452.20;1700843;82;21513;-82
2022/07/19 03:17:47;;;;;;;3.95;2.30;;;;;;;26.53;35.51;101456.61;1701062;83;20999;-82
2022/07/19 03:20:13;;;;;;;5.85;2.30;;;;;;;26.53;35.50;101459.41;1701030;83;21060;-82
2022/07/19 03:22:40;;;;;;;5.62;2.17;;;;;;;26.52;35.51;101456.40;1700851;82;21031;-82
2022/07/19 03:25:07;;;;;;;3.60;2.20;;;;;;;26.52;35.47;101456.40;1701012;83;21138;-82
2022/07/19 03:27:34;;;;;;;3.42;1.82;;;;;;;26.52;35.46;101463.38;1707529;83;21012;-82
2022/07/19 03:30:01;;;;;;;3.90;2.20;;;;;;;26.52;35.44;101468.34;1700817;83;21102;-82
2022/07/19 03:32:27;;;;;;;3.72;2.10;;;;;;;26.51;35.43;101462.55;1701589;83;21459;-82
2022/07/19 03:34:54;;;;;;;3.90;2.00;;;;;;;26.52;35.42;101466.16;1702169;83;20987;-82
2022/07/19 03:37:20;;;;;;;3.72;2.00;;;;;;;26.52;35.39;101457.80;1703020;82;21689;-82
2022/07/19 03:39:46;;;;;;;4.87;2.05;;;;;;;26.51;35.39;101458.94;1702956;82;21011;-81
2022/07/19 03:42:13;;;;;;;2.80;1.85;;;;;;;26.52;35.39;101465.56;1703787;82;21477;-81
2022/07/19 03:44:39;;;;;;;5.15;1.90;;;;;;;26.52;35.38;101470.35;1705760;82;21477;-82
2022/07/19 03:47:06;;;;;;;5.60;2.15;;;;;;;26.52;35.35;101472.53;1706053;82;20991;-82
2022/07/19 03:49:32;;;;;;;4.20;1.85;;;;;;;26.51;35.34;101465.92;1705952;84;21108;-82
2022/07/19 03:51:59;;;;;;;4.70;1.80;;;;;;;26.52;35.35;101467.56;1728212;81;21057;-83
2022/07/19 03:54:31;;;;;;;4.67;1.85;;;;;;;26.52;35.33;101465.56;1728102;81;21144;-83
2022/07/19 03:56:57;;;;;;;3.47;1.98;;;;;;;26.52;35.32;101470.35;1728260;81;21076;-82
2022/07/19 03:59:24;;;;;;;4.58;2.02;;;;;;;26.52;35.32;101468.95;1727918;81;21120;-82
2022/07/19 04:01:50;;;;;;;2.92;1.98;;;;;;;26.53;35.30;101473.36;1728418;83;21550;-82
2022/07/19 04:04:17;;;;;;;4.90;2.00;;;;;;;26.52;35.28;101463.38;1728387;81;21036;-82
2022/07/19 04:06:44;;;;;;;3.58;1.90;;;;;;;26.53;35.26;101473.36;1728000;81;21123;-82
2022/07/19 04:09:10;;;;;;;3.98;1.77;;;;;;;26.52;35.26;101468.34;1728375;81;21095;-82
2022/07/19 04:11:37;;;;;;;4.37;1.75;;;;;;;26.52;35.23;101469.74;1756003;80;21050;-82
2022/07/19 04:14:03;;;;;;;7.12;2.08;;;;;;;26.52;35.23;101466.95;1758718;80;21397;-81
2022/07/19 04:16:30;;;;;;;7.15;1.90;;;;;;;26.53;35.23;101471.38;1758639;80;21042;-82
2022/07/19 04:18:56;;;;;;;9.58;2.02;;;;;;;26.54;35.20;101470.23;1758775;80;21038;-82
2022/07/19 04:21:23;;;;;;;3.92;1.72;;;;;;;26.53;35.20;101470.56;1758361;80;21101;-82
2022/07/19 04:23:49;;;;;;;3.70;1.75;;;;;;;26.54;35.19;101470.80;1758799;80;21017;-82
2022/07/19 04:26:16;;;;;;;4.12;2.75;;;;;;;26.52;35.15;101465.56;1758699;80;20995;-81
2022/07/19 04:28:42;;;;;;;3.00;1.87;;;;;;;26.53;35.23;101467.77;1758348;80;21397;-81
2022/07/19 04:31:09;;;;;;;3.70;1.72;;;;;;;26.53;35.30;101464.98;1758626;80;22205;-81
2022/07/19 04:33:35;;;;;;;6.00;2.10;;;;;;;26.53;35.32;101468.59;1758720;80;21026;-81
2022/07/19 04:36:02;;;;;;;4.15;1.95;;;;;;;26.53;35.30;101464.98;1758411;80;21034;-81
2022/07/19 04:38:28;;;;;;;4.80;1.90;;;;;;;26.54;35.29;101469.41;1758697;80;21730;-81
2022/07/19 04:40:55;;;;;;;4.75;1.95;;;;;;;26.53;35.29;101467.20;1758765;80;21046;-81
2022/07/19 04:43:21;;;;;;;3.60;1.82;;;;;;;26.53;35.29;101469.16;1754313;80;20991;-81
2022/07/19 04:45:48;;;;;;;3.62;1.72;;;;;;;26.53;35.30;101467.20;1722840;81;21064;-80
2022/07/19 04:48:14;;;;;;;4.90;1.80;;;;;;;26.53;35.27;101469.98;1722942;81;21128;-81
2022/07/19 04:50:41;;;;;;;3.75;2.00;;;;;;;26.52;35.28;101465.56;1722630;82;21181;-81
2022/07/19 04:53:08;;;;;;;4.12;1.80;;;;;;;26.53;35.30;101471.38;1722790;81;21441;-81
2022/07/19 04:55:36;;;;;;;3.55;1.85;;;;;;;26.54;35.33;101470.80;1723016;82;21045;-81
2022/07/19 04:58:02;;;;;;;6.78;1.82;;;;;;;26.54;35.33;101473.59;1722793;82;21002;-81
2022/07/19 05:00:28;;;;;;;4.45;1.90;;;;;;;26.54;35.38;101470.80;1723082;81;21038;-82
2022/07/19 05:02:56;;;;;;;4.20;1.70;;;;;;;26.54;35.39;101469.41;1723006;81;21133;-81
2022/07/19 05:05:29;;;;;;;3.92;1.70;;;;;;;26.54;35.38;101473.02;1702754;82;21026;-82
2022/07/19 05:07:56;;;;;;;4.50;1.98;;;;;;;26.54;35.39;101477.78;1723003;81;21424;-83
2022/07/19 05:10:22;;;;;;;5.05;2.00;;;;;;;26.54;35.37;101477.20;1722933;81;21022;-83
2022/07/19 05:12:49;;;;;;;3.27;1.65;;;;;;;26.54;35.35;101477.20;1722740;81;21126;-83
2022/07/19 05:15:15;;;;;;;3.60;1.87;;;;;;;26.55;35.37;101473.84;1722944;82;21151;-82
2022/07/19 05:17:42;;;;;;;4.50;1.80;;;;;;;26.56;35.38;101479.67;1722740;81;21546;-83
2022/07/19 05:20:10;;;;;;;6.55;2.70;;;;;;;26.56;35.37;101477.70;1722613;81;21065;-83
2022/07/19 05:22:37;;;;;;;7.58;2.40;;;;;;;26.57;35.42;101476.52;1722940;81;21001;-82
2022/07/19 05:25:03;;;;;;;8.63;4.47;;;;;;;26.58;35.40;101482.92;1726546;81;21038;-82
2022/07/19 05:27:30;;;;;;;7.40;5.28;;;;;;;26.58;35.46;101478.73;1720443;82;21465;-82
2022/07/19 05:29:56;;;;;;;7.12;4.97;;;;;;;26.59;35.50;101479.80;1749548;80;21659;-81
2022/07/19 05:32:23;;;;;;;6.85;3.62;;;;;;;26.57;35.51;101476.52;1750654;80;21098;-83
2022/07/19 05:34:49;;;;;;;10.15;5.75;;;;;;;26.59;35.52;101483.98;1750351;80;21002;-83
2022/07/19 05:37:15;;;;;;;9.10;5.75;;;;;;;26.59;35.55;101483.16;1750701;80;21537;-83
2022/07/19 05:39:42;;;;;;;8.73;5.28;;;;;;;26.59;35.59;101485.38;1750177;80;20968;-83
2022/07/19 05:42:08;;;;;;;9.20;6.15;;;;;;;26.61;35.68;101490.59;1749752;80;21026;-83
2022/07/19 05:44:35;;;;;;;7.30;5.08;;;;;;;26.61;35.73;101480.25;1753855;80;21596;-83
2022/07/19 05:47:01;;;;;;;8.78;5.65;;;;;;;26.61;35.80;101491.41;1758175;80;21508;-83
2022/07/19 05:49:28;;;;;;;8.10;5.33;;;;;;;26.61;35.86;101491.41;1757838;80;21662;-83
2022/07/19 05:51:54;;;;;;;9.60;4.60;;;;;;;26.61;35.98;101484.44;1756797;80;21665;-80
2022/07/19 05:54:20;;;;;;;8.40;4.53;;;;;;;26.61;35.94;101484.44;1756060;80;21086;-81
2022/07/19 05:56:47;;;;;;;7.97;4.12;;;;;;;26.60;35.94;101484.80;1755981;80;21073;-81
2022/07/19 05:59:13;;;;;;;7.75;4.15;;;;;;;26.59;35.88;101485.38;1757522;79;21054;-82
2022/07/19 06:01:40;;;;;;;4.92;3.20;;;;;;;26.56;35.88;101483.86;1765132;78;21247;-81
2022/07/19 06:04:06;;;;;;;9.08;2.50;;;;;;;26.54;35.72;101483.36;1760048;80;22145;-82
2022/07/19 06:06:33;;;;;;;7.42;2.90;;;;;;;26.52;35.43;101484.30;1753536;80;21280;-81
2022/07/19 06:09:00;;;;;;;3.72;2.83;;;;;;;26.45;35.31;101482.05;1754826;80;21024;-79
2022/07/19 06:11:26;;;;;;;5.10;2.72;;;;;;;26.43;35.32;101482.16;1742183;80;21454;-83
2022/07/19 06:13:53;;;;;;;6.90;2.60;;;;;;;26.42;35.36;101482.73;1726490;81;21117;-82
2022/07/19 06:16:19;;;;;;;6.87;2.42;;;;;;;26.42;35.31;101484.70;1767104;80;21102;-82
2022/07/19 06:18:46;;;;;;;5.65;2.00;;;;;;;26.40;35.15;101480.03;1756748;80;21750;-82
2022/07/19 06:21:14;;;;;;;7.30;2.40;;;;;;;26.40;34.89;101484.22;1757076;80;21387;-82
2022/07/19 06:23:40;;;;;;;4.50;1.92;;;;;;;26.38;34.97;101490.16;1757566;80;21018;-84
2022/07/19 06:26:07;;;;;;;6.08;2.10;;;;;;;26.37;34.88;101488.52;1758049;80;21088;-82
2022/07/19 06:28:36;;;;;;;8.20;2.30;;;;;;;26.39;34.86;101482.03;1758170;80;21600;-83
2022/07/19 06:31:03;;;;;;;4.03;1.87;;;;;;;26.39;34.83;101486.79;1758041;80;21126;-83
2022/07/19 06:33:29;;;;;;;4.60;1.95;;;;;;;26.39;34.64;101486.22;1758762;80;21093;-82
2022/07/19 06:35:56;;;;;;;3.83;2.02;;;;;;;26.40;34.64;101485.61;1759233;80;21051;-82
2022/07/19 06:38:26;;;;;;;53.10;5.37;;;;;;;26.40;34.55;101484.22;1758110;80;21033;-81
2022/07/19 06:40:52;;;;;;;28.50;3.15;;;;;;;26.39;34.25;101486.79;1756775;80;21790;-80
2022/07/19 06:43:19;;;;;;;53.78;4.47;;;;;;;26.38;34.21;101492.13;1757122;80;21505;-81
2022/07/19 06:45:45;;;;;;;22.82;3.00;;;;;;;26.36;34.19;101486.30;1758394;80;21797;-80
2022/07/19 06:48:11;;;;;;;29.35;3.20;;;;;;;26.36;34.14;101490.48;1753851;80;21054;-80
2022/07/19 06:50:38;;;;;;;27.07;2.90;;;;;;;26.38;34.05;101490.16;1759745;80;21188;-82
2022/07/19 06:53:04;;;;;;;21.12;2.70;;;;;;;26.40;33.89;101492.59;1752803;78;21492;-81
2022/07/19 06:55:31;;;;;;;18.37;3.05;;;;;;;26.38;33.76;101487.37;1728091;81;21461;-82
2022/07/19 06:57:57;;;;;;;18.65;3.20;;;;;;;26.40;33.73;101493.98;1760089;80;21042;-82
2022/07/19 07:00:24;;;;;;;8.38;2.30;;;;;;;26.39;33.73;101489.58;1756813;80;21050;-82
2022/07/19 07:02:50;;;;;;;14.00;2.20;;;;;;;26.40;33.80;101486.44;1753509;80;20991;-82
2022/07/19 07:05:17;;;;;;;12.85;2.22;;;;;;;26.42;33.75;101488.89;1758803;80;21123;-81
2022/07/19 07:07:43;;;;;;;14.10;2.10;;;;;;;26.42;33.56;101487.50;1756667;80;21073;-82
2022/07/19 07:10:10;;;;;;;11.20;2.20;;;;;;;26.43;33.53;101488.56;1756313;80;21109;-81
2022/07/19 07:12:36;;;;;;;10.20;2.40;;;;;;;26.46;33.46;101492.62;1757933;78;21109;-81
2022/07/19 07:15:04;;;;;;;9.45;2.02;;;;;;;26.46;33.35;101489.27;1762898;79;21094;-81
2022/07/19 07:17:31;;;;;;;12.58;2.15;;;;;;;26.45;33.23;101493.20;1754356;80;21697;-82
2022/07/19 07:19:57;;;;;;;4.47;1.50;;;;;;;26.47;33.06;101492.88;1764058;78;21129;-81
2022/07/19 07:22:23;;;;;;;5.65;1.52;;;;;;;26.48;32.90;101494.52;1755497;80;21719;-81
2022/07/19 07:24:50;;;;;;;5.80;1.80;;;;;;;26.49;32.74;101491.94;1739958;81;21523;-82
2022/07/19 07:27:16;;;;;;;3.27;1.57;;;;;;;26.48;32.47;101496.70;1756377;80;21038;-79
2022/07/19 07:29:43;;;;;;;3.55;1.47;;;;;;;26.47;32.36;101493.70;1757247;80;21044;-82
2022/07/19 07:32:09;;;;;;;4.62;1.60;;;;;;;26.48;32.38;101498.09;1754266;79;21058;-81
2022/07/19 07:34:35;;;;;;;3.60;1.42;;;;;;;26.50;32.39;101499.16;1757199;80;21486;-82
2022/07/19 07:37:02;;;;;;;7.85;1.60;;;;;;;26.51;32.32;101494.64;1756092;79;21006;-82
2022/07/19 07:39:28;;;;;;;6.42;1.40;;;;;;;26.51;32.10;101491.03;1747709;80;21097;-82
2022/07/19 07:41:55;;;;;;;10.85;2.00;;;;;;;26.51;32.07;101489.64;1727383;80;21983;-82
2022/07/19 07:44:21;;;;;;;40.92;3.62;;;;;;;26.52;32.05;101492.67;1755035;80;21097;-83
2022/07/19 07:46:47;;;;;;;16.87;2.40;;;;;;;26.53;31.92;101492.31;1750963;80;21037;-81
2022/07/19 07:49:14;;;;;;;16.45;2.40;;;;;;;26.53;31.87;101489.52;1753263;81;21615;-87
2022/07/19 07:51:40;;;;;;;23.52;2.52;;;;;;;26.54;31.86;101490.34;1752719;80;21504;-81
2022/07/19 07:54:06;;;;;;;19.42;2.08;;;;;;;26.55;31.86;101485.83;1750982;80;21612;-82
2022/07/19 07:56:33;;;;;;;8.75;1.87;;;;;;;26.57;31.87;101486.28;1753186;80;21021;-82
2022/07/19 07:58:59;;;;;;;15.63;2.35;;;;;;;26.59;31.77;101481.77;1753337;80;21057;-81
2022/07/19 08:01:25;;;;;;;8.95;1.82;;;;;;;26.59;31.73;101488.74;1760646;80;21332;-82
2022/07/19 08:03:52;;;;;;;8.20;1.70;;;;;;;26.59;31.70;101480.37;1760242;79;21038;-81
2022/07/19 08:06:18;;;;;;;22.42;2.95;;;;;;;26.61;31.63;101478.03;1753298;80;21497;-82
2022/07/19 08:08:44;;;;;;;27.48;3.58;;;;;;;26.62;31.70;101474.91;1752616;81;21508;-85
2022/07/19 08:11:11;;;;;;;60.55;4.35;;;;;;;26.64;31.71;101482.95;1753180;80;21117;-86
2022/07/19 08:13:37;;;;;;;40.30;4.33;;;;;;;26.64;31.49;101485.75;1752280;80;21049;-81
2022/07/19 08:16:04;;;;;;;47.38;4.55;;;;;;;26.65;31.35;101487.39;1742824;80;21038;-82
2022/07/19 08:18:33;;;;;;;31.95;3.25;;;;;;;26.66;31.29;101482.02;1729389;80;21320;-86
2022/07/19 08:20:59;;;;;;;15.65;2.60;;;;;;;26.66;31.14;101480.63;1753139;80;21096;-89
2022/07/19 08:23:26;;;;;;;13.28;1.85;;;;;;;26.67;31.04;101475.28;1752365;80;21096;-87
2022/07/19 08:25:52;;;;;;;15.20;2.72;;;;;;;26.66;30.82;101477.83;1752612;80;21088;-82
2022/07/19 08:28:19;;;;;;;14.33;2.87;;;;;;;26.66;30.58;101472.25;1753083;80;21041;-79
2022/07/19 08:30:45;;;;;;;21.87;2.75;;;;;;;26.64;30.50;101474.01;1747121;80;21260;-79
2022/07/19 08:33:11;;;;;;;19.32;3.12;;;;;;;26.66;30.69;101476.44;1765718;80;21026;-80
2022/07/19 08:35:38;;;;;;;22.13;2.87;;;;;;;26.66;30.99;101473.06;1752230;79;21030;-80
2022/07/19 08:38:04;;;;;;;17.12;2.90;;;;;;;26.67;31.14;101471.91;1751966;81;21016;-80
2022/07/19 08:40:33;;;;;;;8.10;2.08;;;;;;;26.68;31.16;101465.76;1750868;81;21602;-81
2022/07/19 08:42:59;;;;;;;8.68;1.92;;;;;;;26.68;31.19;101467.16;1752011;81;21088;-80
2022/07/19 08:45:26;;;;;;;9.48;1.90;;;;;;;26.68;30.85;101465.19;1757046;80;21005;-80
2022/07/19 08:47:52;;;;;;;9.30;1.65;;;;;;;26.68;30.60;101465.76;1764759;80;21090;-80
2022/07/19 08:50:19;;;;;;;5.95;1.60;;;;;;;26.68;30.63;101464.36;1750421;80;21021;-80
2022/07/19 08:52:45;;;;;;;13.30;2.60;;;;;;;26.70;30.43;101462.02;1750252;80;21504;-80
2022/07/19 08:55:12;;;;;;;10.65;1.87;;;;;;;26.72;30.68;101458.33;1750359;80;21183;-80
2022/07/19 08:57:57;;;;;;;11.85;2.37;;;;;;;26.74;30.88;101455.98;1750188;80;21080;-80
2022/07/19 09:00:25;;;;;;;7.67;1.80;;;;;;;26.75;30.94;101454.27;1735300;80;21575;-80
2022/07/19 09:03:05;;;;;;;5.95;1.75;;;;;;;26.76;30.79;101455.08;1759614;80;21100;-80
2022/07/19 09:05:33;;;;;;;11.12;1.98;;;;;;;26.75;30.64;101454.27;1746334;80;21124;-79
2022/07/19 09:08:17;;;;;;;16.07;8.05;;;;;;;26.76;30.59;101456.48;1745764;80;21564;-80
2022/07/19 09:13:32;;;;;;;10.28;2.70;;;;;;;26.76;30.34;101452.29;1719076;82;21005;-79
2022/07/19 09:15:58;;;;;;;8.08;2.83;;;;;;;26.76;30.47;101447.53;1718780;82;21609;-80
2022/07/19 09:18:31;;;;;;;8.00;2.37;;;;;;;26.77;30.46;101438.58;1719120;82;21067;-80
2022/07/19 09:21:05;;;;;;;6.15;2.12;;;;;;;26.77;30.26;101435.20;1718111;82;21141;-80
2022/07/19 09:23:32;;;;;;;4.65;2.00;;;;;;;26.79;30.05;101433.45;1750500;80;21065;-81
2022/07/19 09:26:01;;;;;;;18.27;12.93;;;;;;;26.80;29.94;101434.51;1753578;80;21022;-81
2022/07/19 09:28:31;;;;;;;17.87;9.53;;;;;;;26.82;29.89;101432.75;1723166;81;21077;-82
2022/07/19 09:30:58;;;;;;;10.30;4.15;;;;;;;26.81;30.05;101429.17;1748631;82;21103;-82
2022/07/19 09:33:28;;;;;;;3.40;2.20;;;;;;;26.83;30.33;101432.41;1749050;81;21142;-81
2022/07/19 09:35:59;;;;;;;6.30;2.70;;;;;;;26.84;30.31;101431.84;1739311;81;21030;-79
2022/07/19 09:38:31;;;;;;;7.35;2.25;;;;;;;26.86;30.23;101432.93;1749068;80;21086;-83
2022/07/19 09:41:16;;;;;;;4.97;1.42;;;;;;;26.87;30.13;101427.55;1739951;81;21328;-83
2022/07/19 09:44:05;;;;;;;6.45;2.27;;;;;;;26.89;29.96;101423.86;1723348;81;21119;-87
2022/07/19 09:46:45;;;;;;;3.55;1.62;;;;;;;26.91;29.85;101425.70;1729180;81;21564;-86
2022/07/19 09:49:13;;;;;;;5.87;2.60;;;;;;;26.92;29.91;101421.18;1705240;83;21398;-83
2022/07/19 09:51:46;;;;;;;9.15;2.20;;;;;;;26.92;30.03;101425.37;1718854;82;21284;-81
2022/07/19 09:54:15;;;;;;;8.93;2.95;;;;;;;26.91;30.17;101419.55;1719081;82;21065;-82
2022/07/19 09:56:43;;;;;;;7.85;2.58;;;;;;;26.91;30.27;101412.56;1718208;81;21049;-81
2022/07/19 09:59:15;;;;;;;5.67;2.05;;;;;;;26.93;30.50;101415.02;1708571;82;21059;-84
2022/07/19 10:01:42;;;;;;;9.00;2.20;;;;;;;26.92;30.64;101414.78;1716977;81;21132;-80
2022/07/19 10:04:13;;;;;;;7.03;2.25;;;;;;;26.93;30.66;101416.41;1713350;80;21552;-81
2022/07/19 10:06:40;;;;;;;8.43;2.40;;;;;;;26.93;30.84;101418.62;1724398;80;21117;-82
2022/07/19 10:09:09;;;;;;;6.45;2.75;;;;;;;26.94;30.96;101413.86;1717319;81;21523;-81
2022/07/19 10:11:35;;;;;;;6.35;2.58;;;;;;;26.94;31.03;101410.50;1715456;81;21979;-81
2022/07/19 10:14:02;;;;;;;7.58;2.85;;;;;;;26.95;30.90;101407.09;1712099;81;21132;-82
2022/07/19 10:16:55;;;;;;;4.42;1.92;;;;;;;26.95;30.81;101402.91;1717151;81;21081;-80
2022/07/19 10:19:41;;;;;;;6.20;2.60;;;;;;;26.95;30.69;101406.52;1711998;81;21077;-81
2022/07/19 10:22:24;;;;;;;3.65;1.65;;;;;;;26.95;30.63;101391.16;1719139;82;21514;-82
2022/07/19 10:25:15;;;;;;;3.15;1.47;;;;;;;26.97;30.21;101393.04;1715232;82;21097;-78
2022/07/19 10:27:45;;;;;;;5.50;1.80;;;;;;;26.99;30.01;101390.70;1715307;82;21136;-81
2022/07/19 10:30:17;;;;;;;4.62;1.60;;;;;;;27.01;30.08;101391.76;1659671;83;21013;-80
2022/07/19 10:32:46;;;;;;;3.30;1.85;;;;;;;27.01;29.80;101379.19;1716983;82;21666;-81
2022/07/19 10:35:29;;;;;;;4.37;1.90;;;;;;;27.01;29.78;101380.01;1716241;82;21181;-80
2022/07/19 10:38:04;;;;;;;7.03;1.80;;;;;;;27.02;29.81;101376.64;1715062;82;21123;-78
2022/07/19 10:40:50;;;;;;;3.35;1.65;;;;;;;27.01;29.72;101370.23;1715318;82;21113;-80
2022/07/19 10:43:27;;;;;;;4.33;1.72;;;;;;;27.01;29.73;101373.03;1706712;82;21516;-81
2022/07/19 10:46:03;;;;;;;5.92;2.08;;;;;;;27.00;29.63;101374.76;1735843;80;21054;-81
2022/07/19 10:48:49;;;;;;;3.15;1.40;;;;;;;27.01;29.61;101370.81;1719297;81;21073;-81
2022/07/19 10:51:31;;;;;;;4.80;1.50;;;;;;;27.02;29.38;101368.27;1720231;81;21789;-81
2022/07/19 10:54:10;;;;;;;3.52;1.60;;;;;;;27.05;29.30;101361.97;1768767;79;21089;-82
2022/07/19 10:56:39;;;;;;;2.70;1.70;;;;;;;27.06;29.29;101358.02;1746373;79;21054;-83
2022/07/19 10:59:09;;;;;;;3.20;1.87;;;;;;;27.06;29.42;101360.81;1720424;81;21080;-81
2022/07/19 11:01:37;;;;;;;5.15;1.70;;;;;;;27.07;29.56;101362.45;1751986;80;21094;-81
2022/07/19 11:04:33;;;;;;;3.12;1.55;;;;;;;27.05;29.48;101347.42;1756223;80;21107;-81
2022/07/19 11:07:21;;;;;;;3.40;1.62;;;;;;;27.07;29.48;101349.88;1743120;80;21026;-82
2022/07/19 11:09:56;;;;;;;2.52;1.40;;;;;;;27.06;29.67;101345.45;1718775;82;22227;-81
2022/07/19 11:12:35;;;;;;;3.40;1.57;;;;;;;27.08;29.48;101339.73;1708628;81;21563;-82
2022/07/19 11:15:08;;;;;;;5.95;1.57;;;;;;;27.10;29.40;101340.80;1742918;80;21105;-81
2022/07/19 11:17:35;;;;;;;3.27;1.45;;;;;;;27.11;29.35;101332.08;1749407;80;21766;-79
2022/07/19 11:20:07;;;;;;;6.40;1.87;;;;;;;27.12;29.46;101330.07;1719437;83;21517;-78
2022/07/19 11:22:36;;;;;;;10.00;2.25;;;;;;;27.11;29.60;101322.88;1748131;80;21054;-79
2022/07/19 11:25:03;;;;;;;7.92;1.82;;;;;;;27.10;29.65;101327.65;1757043;79;21051;-83
2022/07/19 11:27:31;;;;;;;5.12;1.52;;;;;;;27.11;29.52;101325.09;1720049;81;21100;-83
2022/07/19 11:30:01;;;;;;;5.75;1.90;;;;;;;27.11;29.53;101317.30;1745102;80;21136;-86
2022/07/19 11:32:27;;;;;;;4.90;1.82;;;;;;;27.11;29.66;101313.92;1717804;81;21068;-85
2022/07/19 11:35:06;;;;;;;10.13;1.80;;;;;;;27.11;29.77;101314.50;1715071;82;21700;-84